Time;durP1;ratioP1;P1;durP2;ratioP2;P2;SDS_P1;SDS_P2;PMS_P1;PMS_P2;Temp;Humidity;BMP_temperature;BMP_pressure;BME280_temperature;BME280_humidity;BME280_pressure;Samples;Min_cycle;Max_cycle;Signal;HPM_P1;HPM_P2
2022/11/16 00:01:42;;;;;;;;;;;;;;;20.76;30.35;97569.44;5055631;28;851;-75
2022/11/16 00:04:08;;;;;;;;;;;;;;;20.65;30.55;97566.16;5055392;28;1975;-75
2022/11/16 00:06:33;;;;;;;;;;;;;;;20.75;30.63;97564.25;5037821;28;925;-75
2022/11/16 00:11:44;;;;;;;;;;;;;;;20.81;30.04;97556.78;5058837;28;929;-75
2022/11/16 00:14:09;;;;;;;;;;;;;;;21.05;29.66;97563.72;5059404;28;948;-75
2022/11/16 00:16:34;;;;;;;;;;;;;;;20.65;30.43;97566.16;5023608;28;938;-75
2022/11/16 00:19:02;;;;;;;;;;;;;;;20.54;30.84;97565.69;5059090;28;904;-75
2022/11/16 00:21:27;;;;;;;;;;;;;;;21.07;30.03;97554.78;5058604;28;1056;-74
2022/11/16 00:23:53;;;;;;;;;;;;;;;21.14;30.04;97557.41;5058674;28;1902;-75
2022/11/16 00:26:18;;;;;;;;;;;;;;;20.66;30.65;97545.13;5058353;28;977;-75
2022/11/16 00:28:44;;;;;;;;;;;;;;;20.50;30.83;97545.19;5058516;28;1039;-75
2022/11/16 00:31:09;;;;;;;;;;;;;;;20.71;30.44;97543.78;5058859;28;889;-75
2022/11/16 00:33:35;;;;;;;;;;;;;;;20.71;30.57;97547.38;5059046;28;962;-75
2022/11/16 00:36:00;;;;;;;;;;;;;;;20.88;30.29;97545.28;5059122;28;984;-75
2022/11/16 00:38:26;;;;;;;;;;;;;;;20.97;30.30;97536.88;5058932;28;1018;-76
2022/11/16 00:40:52;;;;;;;;;;;;;;;20.75;30.61;97531.13;5058362;28;995;-75
2022/11/16 00:43:17;;;;;;;;;;;;;;;20.87;30.42;97537.22;5058673;28;1967;-75
2022/11/16 00:45:42;;;;;;;;;;;;;;;20.70;30.44;97528.06;5040546;28;973;-75
2022/11/16 00:48:09;;;;;;;;;;;;;;;20.97;30.59;97530.44;5058262;28;985;-75
2022/11/16 00:50:34;;;;;;;;;;;;;;;21.09;30.05;97526.84;5040712;28;1259;-75
2022/11/16 00:53:00;;;;;;;;;;;;;;;21.18;29.76;97529.75;5058612;28;932;-75
2022/11/16 00:55:27;;;;;;;;;;;;;;;20.89;30.38;97529.09;5040701;28;1092;-75
2022/11/16 00:57:52;;;;;;;;;;;;;;;20.75;30.47;97527.50;5040572;28;1164;-75
2022/11/16 01:00:19;;;;;;;;;;;;;;;20.73;30.46;97518.69;5040371;28;1408;-75
2022/11/16 01:02:45;;;;;;;;;;;;;;;20.84;30.49;97516.31;5040417;28;1979;-75
2022/11/16 01:05:10;;;;;;;;;;;;;;;20.95;30.20;97516.75;5058177;28;914;-76
2022/11/16 01:07:36;;;;;;;;;;;;;;;21.32;29.93;97517.22;5040107;28;968;-75
2022/11/16 01:10:09;;;;;;;;;;;;;;;20.71;30.69;97513.47;4996647;28;932;-75
2022/11/16 01:12:34;;;;;;;;;;;;;;;20.78;30.19;97507.59;4980121;28;1026;-75
2022/11/16 01:15:00;;;;;;;;;;;;;;;20.60;30.76;97498.88;4996221;28;975;-75
2022/11/16 01:17:25;;;;;;;;;;;;;;;21.08;29.94;97513.91;4996163;28;1059;-75
2022/11/16 01:19:51;;;;;;;;;;;;;;;20.96;30.41;97495.72;4995681;28;1054;-75
2022/11/16 01:22:16;;;;;;;;;;;;;;;20.79;30.59;97494.25;4996063;28;1930;-75
2022/11/16 01:24:42;;;;;;;;;;;;;;;20.60;30.47;97490.38;4996124;28;1024;-75
2022/11/16 01:27:07;;;;;;;;;;;;;;;20.61;30.43;97486.31;4977182;28;1223;-75
2022/11/16 01:29:36;;;;;;;;;;;;;;;20.64;30.64;97491.06;4979948;28;1190;-75
2022/11/16 01:32:01;;;;;;;;;;;;;;;21.11;30.26;97479.09;4996317;28;1042;-75
2022/11/16 01:34:27;;;;;;;;;;;;;;;21.21;30.17;97477.94;4979933;28;1442;-75
2022/11/16 01:36:58;;;;;;;;;;;;;;;20.84;30.39;97487.25;4979723;28;1224;-75
2022/11/16 01:39:27;;;;;;;;;;;;;;;20.75;30.47;97477.41;4979961;28;1125;-75
2022/11/16 01:41:57;;;;;;;;;;;;;;;20.35;31.14;97479.00;5009543;28;1231;-75
2022/11/16 01:44:32;;;;;;;;;;;;;;;21.07;30.46;97478.41;5015335;28;1965;-75
2022/11/16 01:47:11;;;;;;;;;;;;;;;21.23;29.79;97477.47;5015387;28;1254;-75
2022/11/16 01:49:39;;;;;;;;;;;;;;;21.05;30.01;97469.59;5015496;28;1261;-75
2022/11/16 01:52:06;;;;;;;;;;;;;;;21.02;29.87;97462.00;4998994;28;1560;-75
2022/11/16 01:54:35;;;;;;;;;;;;;;;20.64;30.54;97457.16;4983029;28;1156;-75
2022/11/16 01:57:01;;;;;;;;;;;;;;;20.91;30.75;97448.22;4998690;28;922;-75
2022/11/16 01:59:38;;;;;;;;;;;;;;;21.24;29.79;97451.56;5000249;28;1021;-75
2022/11/16 02:02:07;;;;;;;;;;;;;;;21.06;30.00;97442.88;4982863;28;1902;-75
2022/11/16 02:04:33;;;;;;;;;;;;;;;20.93;30.05;97444.91;4998721;28;1378;-75
2022/11/16 02:07:19;;;;;;;;;;;;;;;20.69;30.51;97447.31;4959809;28;955;-75
2022/11/16 02:09:54;;;;;;;;;;;;;;;20.69;30.39;97452.97;4943903;28;1070;-75
2022/11/16 02:12:49;;;;;;;;;;;;;;;20.92;30.49;97446.16;4961117;28;1195;-75
2022/11/16 02:15:24;;;;;;;;;;;;;;;21.01;30.21;97447.06;4960134;28;1166;-75
2022/11/16 02:18:03;;;;;;;;;;;;;;;21.25;29.74;97444.66;4959849;28;1164;-75
2022/11/16 02:20:41;;;;;;;;;;;;;;;21.02;29.94;97439.38;4959458;28;1164;-75
2022/11/16 02:23:15;;;;;;;;;;;;;;;20.87;30.01;97438.25;4943938;28;1971;-75
2022/11/16 02:25:47;;;;;;;;;;;;;;;20.75;30.19;97435.00;4959343;28;993;-75
2022/11/16 02:28:19;;;;;;;;;;;;;;;20.59;30.46;97432.28;4959953;28;1098;-75
2022/11/16 02:30:45;;;;;;;;;;;;;;;20.94;30.30;97429.56;4970578;28;1061;-75
2022/11/16 02:33:12;;;;;;;;;;;;;;;21.16;29.76;97423.97;4978673;28;1152;-75
2022/11/16 02:35:40;;;;;;;;;;;;;;;21.00;29.86;97422.06;4963107;28;1203;-75
2022/11/16 02:38:10;;;;;;;;;;;;;;;20.91;29.94;97419.94;4956183;28;1076;-75
2022/11/16 02:40:36;;;;;;;;;;;;;;;20.72;30.21;97413.25;4956333;29;965;-75
2022/11/16 02:43:08;;;;;;;;;;;;;;;21.19;29.84;97406.88;4940147;29;1903;-75
2022/11/16 02:45:35;;;;;;;;;;;;;;;21.07;29.80;97402.03;4978542;28;1244;-75
2022/11/16 02:48:03;;;;;;;;;;;;;;;20.98;30.14;97401.91;4978626;28;1271;-75
2022/11/16 02:50:29;;;;;;;;;;;;;;;20.85;30.02;97399.13;5011211;28;1182;-75
2022/11/16 02:52:55;;;;;;;;;;;;;;;20.77;30.11;97398.56;5011010;28;1289;-75
2022/11/16 02:55:23;;;;;;;;;;;;;;;20.65;30.19;97395.75;5011173;28;1244;-75
2022/11/16 02:57:50;;;;;;;;;;;;;;;21.06;29.77;97403.28;5010981;28;1267;-75
2022/11/16 03:00:17;;;;;;;;;;;;;;;21.02;30.08;97391.28;5011043;28;1130;-75
2022/11/16 03:03:05;;;;;;;;;;;;;;;20.89;29.86;97399.81;4978369;28;1910;-75
2022/11/16 03:05:57;;;;;;;;;;;;;;;20.55;30.42;97389.97;4978599;28;1114;-75
2022/11/16 03:08:23;;;;;;;;;;;;;;;20.53;30.43;97384.00;4964103;28;1101;-75
2022/11/16 03:13:36;;;;;;;;;;;;;;;21.13;29.57;97374.72;4964709;28;1169;-75
2022/11/16 03:16:02;;;;;;;;;;;;;;;21.03;29.58;97370.22;4958785;28;1189;-75
2022/11/16 03:18:30;;;;;;;;;;;;;;;20.75;30.28;97367.13;4959192;28;975;-75
2022/11/16 03:21:19;;;;;;;;;;;;;;;20.58;30.18;97367.72;4944021;28;1583;-75
2022/11/16 03:23:44;;;;;;;;;;;;;;;20.49;30.65;97365.56;4914276;29;1891;-75
2022/11/16 03:26:10;;;;;;;;;;;;;;;20.92;29.82;97361.31;4898757;29;977;-75
2022/11/16 03:28:37;;;;;;;;;;;;;;;21.11;29.53;97365.94;4898525;29;1421;-75
2022/11/16 03:31:05;;;;;;;;;;;;;;;20.88;29.57;97363.47;4898954;29;1207;-75
2022/11/16 03:33:38;;;;;;;;;;;;;;;20.75;30.10;97355.03;4898507;29;1001;-75
2022/11/16 03:36:13;;;;;;;;;;;;;;;20.47;30.45;97357.56;4898881;29;1154;-75
2022/11/16 03:38:39;;;;;;;;;;;;;;;20.90;30.19;97358.19;4914472;29;1246;-75
2022/11/16 03:41:06;;;;;;;;;;;;;;;21.09;29.81;97357.13;4898564;29;1498;-75
2022/11/16 03:43:31;;;;;;;;;;;;;;;21.21;29.46;97347.78;4901785;29;1982;-75
2022/11/16 03:45:59;;;;;;;;;;;;;;;20.79;29.96;97345.19;4933796;29;1596;-75
2022/11/16 03:48:24;;;;;;;;;;;;;;;21.05;29.48;97345.13;4939941;29;1002;-75
2022/11/16 03:50:50;;;;;;;;;;;;;;;20.88;29.94;97338.03;4924223;29;1073;-75
2022/11/16 03:53:16;;;;;;;;;;;;;;;21.07;29.78;97337.75;4948055;29;1149;-75
2022/11/16 03:55:43;;;;;;;;;;;;;;;21.16;29.66;97334.22;4986564;28;1220;-75
2022/11/16 03:58:09;;;;;;;;;;;;;;;20.65;30.12;97334.34;4981405;28;1458;-75
2022/11/16 04:00:34;;;;;;;;;;;;;;;20.66;30.10;97324.63;4991022;28;1112;-75
2022/11/16 04:03:05;;;;;;;;;;;;;;;20.74;30.00;97325.97;5020461;28;1902;-76
2022/11/16 04:24:42;;;;;;;;;;;;;;;20.92;29.78;97318.91;5020458;28;1186;-74
2022/11/16 04:29:53;;;;;;;;;;;;;;;20.77;30.01;97319.41;5040533;28;1322;-76
2022/11/16 04:37:51;;;;;;;;;;;;;;;21.16;30.00;97311.59;5040884;28;1108;-75
2022/11/16 04:40:29;;;;;;;;;;;;;;;20.91;29.88;97311.69;5057556;28;1261;-73
2022/11/16 04:42:57;;;;;;;;;;;;;;;20.79;30.20;97314.09;5041123;28;1913;-73
2022/11/16 04:48:08;;;;;;;;;;;;;;;21.22;29.59;97301.25;5040770;28;1144;-73
2022/11/16 04:50:35;;;;;;;;;;;;;;;21.09;29.94;97294.88;5040931;28;1192;-73
2022/11/16 04:53:01;;;;;;;;;;;;;;;21.05;29.83;97297.03;5040542;28;1249;-73
2022/11/16 04:55:27;;;;;;;;;;;;;;;20.68;30.66;97291.06;5040180;28;1202;-74
2022/11/16 04:57:53;;;;;;;;;;;;;;;20.43;30.87;97299.53;5040553;28;1291;-74
2022/11/16 05:00:19;;;;;;;;;;;;;;;20.58;30.43;97289.38;5040118;28;1412;-73
2022/11/16 05:02:45;;;;;;;;;;;;;;;21.05;30.15;97291.38;5056818;28;1902;-73
2022/11/16 05:05:10;;;;;;;;;;;;;;;21.03;29.96;97296.69;5040763;28;917;-73
2022/11/16 05:07:39;;;;;;;;;;;;;;;20.90;30.03;97298.78;5039937;28;1248;-73
2022/11/16 05:10:10;;;;;;;;;;;;;;;20.90;30.20;97282.63;5073725;28;1133;-73
2022/11/16 05:12:37;;;;;;;;;;;;;;;20.52;30.84;97291.19;5040262;28;1150;-73
2022/11/16 05:15:04;;;;;;;;;;;;;;;20.81;30.32;97286.13;5056363;28;1220;-73
2022/11/16 05:17:31;;;;;;;;;;;;;;;21.02;30.36;97283.81;5040254;28;1277;-73
2022/11/16 05:22:52;;;;;;;;;;;;;;;20.65;30.63;97289.13;5065196;28;1906;-74
2022/11/16 05:25:18;;;;;;;;;;;;;;;20.81;30.24;97286.13;5023614;28;1262;-73
2022/11/16 05:27:44;;;;;;;;;;;;;;;20.76;30.35;97278.25;5076382;28;1419;-73
2022/11/16 05:30:10;;;;;;;;;;;;;;;20.88;30.38;97275.81;5059806;28;926;-73
2022/11/16 05:32:36;;;;;;;;;;;;;;;21.00;30.04;97275.00;5059802;28;1234;-73
2022/11/16 05:35:02;;;;;;;;;;;;;;;21.10;30.25;97268.19;5043407;28;1282;-74
2022/11/16 05:37:29;;;;;;;;;;;;;;;20.79;30.20;97277.34;5059665;28;1135;-74
2022/11/16 05:39:56;;;;;;;;;;;;;;;20.64;30.65;97270.59;5059834;28;1070;-73
2022/11/16 05:42:27;;;;;;;;;;;;;;;20.74;30.35;97286.41;5077220;28;1968;-74
2022/11/16 05:44:53;;;;;;;;;;;;;;;20.91;30.61;97283.41;5042877;28;1274;-73
2022/11/16 05:47:19;;;;;;;;;;;;;;;21.15;30.01;97281.72;5093252;28;1225;-73
2022/11/16 05:49:44;;;;;;;;;;;;;;;21.18;29.71;97272.31;5054619;28;1070;-73
2022/11/16 05:52:11;;;;;;;;;;;;;;;20.97;29.98;97271.03;5038234;28;1115;-73
2022/11/16 05:54:38;;;;;;;;;;;;;;;20.71;30.52;97273.16;5021946;28;1084;-74
2022/11/16 05:57:05;;;;;;;;;;;;;;;20.57;30.72;97265.16;5038243;28;1634;-73
2022/11/16 05:59:30;;;;;;;;;;;;;;;20.58;30.76;97257.50;5038157;28;1184;-73
2022/11/16 06:01:59;;;;;;;;;;;;;;;21.02;30.19;97272.50;5038293;28;1102;-73
2022/11/16 06:04:25;;;;;;;;;;;;;;;21.11;29.99;97272.56;5037844;28;2005;-73
2022/11/16 06:06:52;;;;;;;;;;;;;;;20.87;30.11;97277.06;5037146;28;1253;-74
2022/11/16 06:09:18;;;;;;;;;;;;;;;20.95;30.33;97273.53;5037913;28;1164;-73
2022/11/16 06:11:44;;;;;;;;;;;;;;;20.68;30.55;97262.78;5038114;28;1269;-73
2022/11/16 06:14:11;;;;;;;;;;;;;;;20.72;31.03;97260.59;5037710;28;1316;-73
2022/11/16 06:16:37;;;;;;;;;;;;;;;21.11;30.14;97258.44;5014849;28;1144;-73
2022/11/16 06:19:06;;;;;;;;;;;;;;;21.20;29.68;97261.34;4998552;28;1582;-73
2022/11/16 06:21:31;;;;;;;;;;;;;;;20.81;30.32;97257.88;5007316;28;1123;-73
2022/11/16 06:23:58;;;;;;;;;;;;;;;20.56;30.55;97252.28;5014155;28;1977;-74
2022/11/16 06:26:23;;;;;;;;;;;;;;;20.68;30.54;97242.22;5011109;28;1404;-74
2022/11/16 06:28:49;;;;;;;;;;;;;;;20.81;30.86;97246.56;5003413;28;1158;-73
2022/11/16 06:31:15;;;;;;;;;;;;;;;21.11;29.96;97235.81;4994712;28;1031;-75
2022/11/16 06:33:41;;;;;;;;;;;;;;;21.12;30.03;97237.38;4994565;28;1447;-74
2022/11/16 06:36:14;;;;;;;;;;;;;;;20.96;29.86;97229.09;5006833;28;1244;-74
2022/11/16 06:38:39;;;;;;;;;;;;;;;20.53;30.65;97219.31;4994650;28;1324;-73
2022/11/16 06:41:07;;;;;;;;;;;;;;;20.45;30.46;97229.22;5005842;28;1182;-73
2022/11/16 06:43:38;;;;;;;;;;;;;;;20.91;30.57;97226.84;4993898;28;1894;-74
2022/11/16 06:46:06;;;;;;;;;;;;;;;20.75;30.61;97220.13;4985944;28;1130;-73
2022/11/16 06:48:32;;;;;;;;;;;;;;;21.00;30.16;97221.28;5009713;28;1368;-73
2022/11/16 06:50:58;;;;;;;;;;;;;;;20.83;30.43;97215.00;5030508;28;1479;-73
2022/11/16 06:53:24;;;;;;;;;;;;;;;20.54;30.52;97220.88;5014447;28;985;-74
2022/11/16 06:55:49;;;;;;;;;;;;;;;20.62;30.35;97222.19;5014610;28;1039;-73
2022/11/16 06:58:16;;;;;;;;;;;;;;;21.05;30.20;97215.03;4997912;28;1131;-74
2022/11/16 07:00:43;;;;;;;;;;;;;;;21.07;30.13;97201.19;4997824;28;1087;-74
2022/11/16 07:03:10;;;;;;;;;;;;;;;21.03;30.09;97206.19;5034609;28;1979;-73
2022/11/16 07:05:37;;;;;;;;;;;;;;;20.80;30.20;97205.41;5020792;28;1317;-73
2022/11/16 07:08:03;;;;;;;;;;;;;;;20.85;30.36;97208.91;5037327;28;1257;-73
2022/11/16 07:10:29;;;;;;;;;;;;;;;21.19;30.11;97208.84;5037106;28;1115;-73
2022/11/16 07:12:54;;;;;;;;;;;;;;;21.23;29.83;97203.81;5020972;28;1231;-73
2022/11/16 07:15:20;;;;;;;;;;;;;;;21.10;30.32;97214.44;5049989;28;1418;-73
2022/11/16 07:17:46;;;;;;;;;;;;;;;20.76;30.67;97213.22;5016242;28;1199;-74
2022/11/16 07:20:12;;;;;;;;;;;;;;;20.85;30.04;97206.06;5017640;28;1053;-74
2022/11/16 07:22:38;;;;;;;;;;;;;;;20.92;30.25;97217.09;5001582;28;1910;-73
2022/11/16 07:25:04;;;;;;;;;;;;;;;20.95;30.04;97221.84;5014518;28;1233;-73
2022/11/16 07:27:30;;;;;;;;;;;;;;;20.96;30.76;97223.44;4998034;28;939;-74
2022/11/16 07:29:56;;;;;;;;;;;;;;;21.32;29.76;97212.41;5014787;28;1115;-74
2022/11/16 07:32:38;;;;;;;;;;;;;;;20.98;30.23;97203.94;4988734;28;1117;-74
2022/11/16 07:35:42;;;;;;;;;;;;;;;20.90;30.26;97206.25;4978242;28;1009;-74
2022/11/16 07:38:08;;;;;;;;;;;;;;;20.86;30.15;97204.81;4962635;28;1084;-74
2022/11/16 07:40:33;;;;;;;;;;;;;;;20.92;30.53;97203.75;4962404;28;1103;-74
2022/11/16 07:42:59;;;;;;;;;;;;;;;20.88;30.49;97194.63;4962345;28;1906;-74
2022/11/16 07:45:39;;;;;;;;;;;;;;;21.32;29.84;97205.94;4962380;28;1307;-74
2022/11/16 07:48:08;;;;;;;;;;;;;;;20.84;30.30;97207.31;4962317;28;1184;-74
2022/11/16 07:51:09;;;;;;;;;;;;;;;20.72;30.67;97189.94;4920882;29;1020;-74
2022/11/16 07:53:40;;;;;;;;;;;;;;;20.64;30.41;97191.44;4904764;29;1419;-74
2022/11/16 07:56:06;;;;;;;;;;;;;;;20.94;30.34;97194.84;4938166;29;1263;-74
2022/11/16 07:58:32;;;;;;;;;;;;;;;21.07;30.22;97189.88;4923747;29;1115;-74
2022/11/16 08:01:04;;;;;;;;;;;;;;;21.14;30.01;97189.63;4923756;29;1128;-74
2022/11/16 08:03:30;;;;;;;;;;;;;;;20.98;30.21;97186.97;4939559;29;1915;-74
2022/11/16 08:06:02;;;;;;;;;;;;;;;20.83;30.32;97191.59;4928019;29;1125;-74
2022/11/16 08:08:28;;;;;;;;;;;;;;;20.59;30.53;97189.22;4988527;28;1694;-74
2022/11/16 08:11:00;;;;;;;;;;;;;;;20.88;30.92;97183.31;4948138;29;1446;-74
2022/11/16 08:13:26;;;;;;;;;;;;;;;20.85;30.86;97183.44;4939331;29;1294;-74
2022/11/16 08:15:51;;;;;;;;;;;;;;;21.06;30.24;97182.66;4955462;29;1610;-74
2022/11/16 08:18:18;;;;;;;;;;;;;;;20.77;30.65;97189.34;4939080;29;991;-74
2022/11/16 08:20:44;;;;;;;;;;;;;;;20.73;30.33;97183.06;4955130;29;1343;-74
2022/11/16 08:23:10;;;;;;;;;;;;;;;20.66;30.36;97171.97;4955239;29;1903;-74
2022/11/16 08:25:36;;;;;;;;;;;;;;;20.91;30.78;97178.78;4979564;28;1192;-74
2022/11/16 08:28:01;;;;;;;;;;;;;;;21.06;30.24;97177.78;4996660;28;1007;-74
2022/11/16 08:30:28;;;;;;;;;;;;;;;21.24;29.73;97185.63;4964523;28;1235;-73
2022/11/16 08:32:53;;;;;;;;;;;;;;;20.77;30.66;97172.38;5013632;28;1281;-74
2022/11/16 08:35:19;;;;;;;;;;;;;;;20.96;30.25;97167.66;4989909;28;1206;-74
2022/11/16 08:37:44;;;;;;;;;;;;;;;20.90;30.17;97174.38;5039371;28;1135;-74
2022/11/16 08:40:10;;;;;;;;;;;;;;;20.69;30.55;97156.94;5039866;28;1033;-74
2022/11/16 08:42:37;;;;;;;;;;;;;;;20.81;30.54;97164.56;5054519;28;1963;-74
2022/11/16 08:45:03;;;;;;;;;;;;;;;20.61;30.88;97163.31;5060639;28;1110;-72
2022/11/16 08:47:28;;;;;;;;;;;;;;;20.71;30.65;97167.78;5091475;28;1212;-73
2022/11/16 08:49:57;;;;;;;;;;;;;;;20.95;30.53;97171.75;5044210;28;1091;-73
2022/11/16 08:52:24;;;;;;;;;;;;;;;20.98;30.74;97165.16;5060654;28;1099;-73
2022/11/16 08:54:52;;;;;;;;;;;;;;;20.75;30.80;97174.09;5061028;28;1410;-75
2022/11/16 08:57:17;;;;;;;;;;;;;;;20.63;30.88;97172.91;5060171;28;1462;-74
2022/11/16 08:59:47;;;;;;;;;;;;;;;20.81;30.27;97167.38;5044373;28;1222;-74
2022/11/16 09:02:12;;;;;;;;;;;;;;;20.73;30.60;97166.09;5043727;28;1192;-74
2022/11/16 09:04:38;;;;;;;;;;;;;;;20.89;30.85;97169.97;5059957;28;1914;-74
2022/11/16 09:07:03;;;;;;;;;;;;;;;21.11;30.27;97167.91;5060209;28;1453;-75
2022/11/16 09:09:29;;;;;;;;;;;;;;;20.95;30.32;97173.78;5060284;28;895;-74
2022/11/16 09:11:54;;;;;;;;;;;;;;;20.79;30.85;97166.28;5043409;28;1048;-74
2022/11/16 09:14:20;;;;;;;;;;;;;;;20.76;30.49;97165.16;5038755;28;1112;-74
2022/11/16 09:16:46;;;;;;;;;;;;;;;20.67;30.67;97150.94;5055604;28;1097;-75
2022/11/16 09:19:12;;;;;;;;;;;;;;;21.03;30.56;97155.28;5055342;28;1212;-74
2022/11/16 09:21:37;;;;;;;;;;;;;;;21.00;30.36;97153.41;5038764;28;1014;-74
2022/11/16 09:24:03;;;;;;;;;;;;;;;21.29;29.91;97151.03;5005633;28;1910;-74
2022/11/16 09:26:28;;;;;;;;;;;;;;;21.33;29.79;97137.56;5055507;28;952;-75
2022/11/16 09:28:54;;;;;;;;;;;;;;;21.27;30.10;97135.78;4999085;28;933;-74
2022/11/16 09:31:20;;;;;;;;;;;;;;;20.80;30.60;97136.75;4999294;28;1016;-75
2022/11/16 09:33:46;;;;;;;;;;;;;;;20.77;30.68;97132.81;4982712;28;1321;-75
2022/11/16 09:36:12;;;;;;;;;;;;;;;20.95;30.27;97122.88;5015446;28;1052;-75
2022/11/16 09:38:43;;;;;;;;;;;;;;;21.08;30.60;97118.69;5015474;28;1046;-74
2022/11/16 09:41:15;;;;;;;;;;;;;;;20.89;30.83;97124.72;4982722;28;1597;-74
2022/11/16 09:43:55;;;;;;;;;;;;;;;20.82;31.07;97122.94;5015433;28;1969;-75
2022/11/16 09:46:30;;;;;;;;;;;;;;;20.81;30.86;97127.81;4999085;28;1001;-74
2022/11/16 09:48:56;;;;;;;;;;;;;;;20.74;30.74;97122.44;5014898;28;925;-74
2022/11/16 09:51:22;;;;;;;;;;;;;;;20.63;30.96;97116.38;5015179;28;984;-74
2022/11/16 09:53:51;;;;;;;;;;;;;;;20.61;31.10;97112.44;5015337;28;1065;-74
2022/11/16 09:56:19;;;;;;;;;;;;;;;21.13;30.62;97103.16;4999072;28;1090;-75
2022/11/16 09:58:47;;;;;;;;;;;;;;;21.20;29.97;97107.78;5016163;28;1036;-75
2022/11/16 10:01:15;;;;;;;;;;;;;;;21.21;30.02;97098.81;5072290;28;1081;-74
2022/11/16 10:03:41;;;;;;;;;;;;;;;20.80;31.07;97102.84;5054613;28;1913;-75
2022/11/16 10:06:10;;;;;;;;;;;;;;;20.79;30.94;97085.09;5074626;28;908;-74
2022/11/16 10:08:44;;;;;;;;;;;;;;;20.68;31.03;97090.34;5057517;28;1458;-74
2022/11/16 10:11:09;;;;;;;;;;;;;;;21.20;30.57;97085.16;5057751;28;962;-75
2022/11/16 10:13:37;;;;;;;;;;;;;;;21.00;30.49;97083.47;5074257;28;973;-74
2022/11/16 10:16:03;;;;;;;;;;;;;;;21.04;30.30;97077.69;5053508;28;1950;-75
2022/11/16 10:18:46;;;;;;;;;;;;;;;20.81;30.77;97065.59;5054636;28;1001;-74
2022/11/16 10:21:17;;;;;;;;;;;;;;;20.67;31.06;97071.78;5037539;28;1319;-74
2022/11/16 10:24:01;;;;;;;;;;;;;;;20.80;30.72;97058.38;5054094;28;1902;-75
2022/11/16 10:26:30;;;;;;;;;;;;;;;21.02;30.72;97066.03;5037559;28;1404;-75
2022/11/16 10:29:13;;;;;;;;;;;;;;;21.39;29.98;97063.38;5054156;28;1121;-74
2022/11/16 10:31:52;;;;;;;;;;;;;;;20.93;30.59;97060.31;5054166;28;1007;-75
2022/11/16 10:34:21;;;;;;;;;;;;;;;20.87;30.59;97050.88;5037497;28;1246;-75
2022/11/16 10:36:47;;;;;;;;;;;;;;;20.62;31.06;97049.78;5054708;28;929;-74
2022/11/16 10:39:12;;;;;;;;;;;;;;;20.87;30.84;97045.22;5071899;28;887;-74
2022/11/16 10:41:38;;;;;;;;;;;;;;;21.13;30.75;97037.31;5058755;28;937;-74
2022/11/16 10:44:07;;;;;;;;;;;;;;;21.21;30.69;97032.97;5076477;28;1967;-74
2022/11/16 10:46:35;;;;;;;;;;;;;;;20.91;30.93;97040.22;5041624;28;894;-74
2022/11/16 10:49:06;;;;;;;;;;;;;;;20.72;31.09;97039.31;5042024;28;919;-75
2022/11/16 10:51:31;;;;;;;;;;;;;;;20.67;31.20;97032.22;5058385;28;1004;-74
2022/11/16 10:53:57;;;;;;;;;;;;;;;20.86;30.72;97038.78;5058387;28;1065;-74
2022/11/16 10:56:24;;;;;;;;;;;;;;;21.13;30.52;97035.28;5058587;28;952;-75
2022/11/16 10:58:51;;;;;;;;;;;;;;;21.14;30.62;97031.22;5076374;28;873;-74
2022/11/16 11:01:35;;;;;;;;;;;;;;;21.12;30.77;97025.22;5076220;28;1035;-75
2022/11/16 11:04:19;;;;;;;;;;;;;;;20.89;30.65;97031.41;5075939;28;1906;-74
2022/11/16 11:06:45;;;;;;;;;;;;;;;20.79;30.88;97033.41;5076066;28;1158;-75
2022/11/16 11:09:34;;;;;;;;;;;;;;;20.68;31.15;97021.72;5056478;28;1254;-76
2022/11/16 11:15:00;;;;;;;;;;;;;;;21.01;30.51;97022.81;5032646;28;1227;-76
2022/11/16 11:17:26;;;;;;;;;;;;;;;20.69;30.96;97012.78;5041047;28;1416;-76
2022/11/16 11:20:11;;;;;;;;;;;;;;;20.97;30.92;97016.53;5042857;28;1280;-76
2022/11/16 11:22:41;;;;;;;;;;;;;;;20.67;30.85;97003.97;4946272;29;1981;-76
2022/11/16 11:25:13;;;;;;;;;;;;;;;20.65;30.93;96995.16;4951849;29;1405;-75
2022/11/16 11:27:39;;;;;;;;;;;;;;;21.18;30.56;96997.91;4920367;29;1224;-75
2022/11/16 11:30:04;;;;;;;;;;;;;;;21.37;30.30;97003.66;4949021;29;1323;-75
2022/11/16 11:32:34;;;;;;;;;;;;;;;20.90;30.69;96993.41;4951572;29;1227;-75
2022/11/16 11:34:59;;;;;;;;;;;;;;;20.86;30.96;97004.06;4935627;29;1319;-74
2022/11/16 11:37:29;;;;;;;;;;;;;;;20.89;30.70;96997.50;4920077;29;1464;-75
2022/11/16 11:40:05;;;;;;;;;;;;;;;20.71;30.98;96987.66;4936241;29;1370;-75
2022/11/16 11:42:30;;;;;;;;;;;;;;;20.95;30.79;96995.63;4939765;29;1903;-74
2022/11/16 11:44:59;;;;;;;;;;;;;;;21.19;30.45;96979.69;4955398;29;968;-74
2022/11/16 11:47:43;;;;;;;;;;;;;;;20.91;31.00;96983.66;4939445;29;1027;-74
2022/11/16 11:50:12;;;;;;;;;;;;;;;20.63;31.56;96992.03;4977786;28;1076;-74
2022/11/16 11:52:38;;;;;;;;;;;;;;;20.68;31.08;96985.78;4977801;28;1015;-74
2022/11/16 11:55:04;;;;;;;;;;;;;;;20.65;31.42;96983.84;4955369;29;1073;-75
2022/11/16 11:57:32;;;;;;;;;;;;;;;20.94;30.89;96994.06;4939370;29;1685;-74
2022/11/16 11:59:57;;;;;;;;;;;;;;;21.23;30.59;96968.22;4982028;28;1021;-75
2022/11/16 12:02:27;;;;;;;;;;;;;;;20.92;30.64;96979.56;4996919;28;986;-75
2022/11/16 12:04:55;;;;;;;;;;;;;;;20.91;30.81;96973.13;4997253;28;1034;-74
2022/11/16 12:07:33;;;;;;;;;;;;;;;20.86;30.81;96970.13;4997682;28;1008;-75
2022/11/16 12:10:04;;;;;;;;;;;;;;;20.88;31.21;96968.44;4997255;28;929;-74
2022/11/16 12:12:48;;;;;;;;;;;;;;;21.26;30.21;96976.56;4997752;28;1137;-76
2022/11/16 12:15:32;;;;;;;;;;;;;;;21.19;30.50;96971.22;4997262;28;953;-75
2022/11/16 12:18:00;;;;;;;;;;;;;;;20.86;31.12;96967.31;4997587;28;1137;-75
2022/11/16 12:20:26;;;;;;;;;;;;;;;20.78;31.21;96967.59;4997064;28;1526;-74
2022/11/16 12:23:10;;;;;;;;;;;;;;;20.71;30.90;96959.38;4997120;28;1985;-74
2022/11/16 12:25:35;;;;;;;;;;;;;;;20.86;30.72;96964.47;5009392;28;1173;-74
2022/11/16 12:28:09;;;;;;;;;;;;;;;21.05;30.95;96960.47;5036618;28;968;-74
2022/11/16 12:30:58;;;;;;;;;;;;;;;21.23;30.38;96954.84;5002128;28;967;-75
2022/11/16 12:33:36;;;;;;;;;;;;;;;20.98;30.68;96950.22;4996887;28;1054;-75
2022/11/16 12:36:13;;;;;;;;;;;;;;;20.94;30.75;96948.81;4997254;28;963;-74
2022/11/16 12:38:57;;;;;;;;;;;;;;;20.89;31.07;96957.91;4964356;28;1145;-75
2022/11/16 12:41:41;;;;;;;;;;;;;;;20.68;31.12;96948.25;4996860;28;1023;-75
2022/11/16 12:44:07;;;;;;;;;;;;;;;21.13;30.78;96953.25;4996753;28;1898;-74
2022/11/16 12:46:36;;;;;;;;;;;;;;;21.43;30.14;96957.28;4980967;28;959;-74
2022/11/16 12:49:20;;;;;;;;;;;;;;;21.05;30.54;96957.66;4996571;28;1015;-75
2022/11/16 12:51:51;;;;;;;;;;;;;;;20.90;30.99;96959.47;4996938;28;927;-75
2022/11/16 12:54:40;;;;;;;;;;;;;;;20.89;30.77;96952.25;4977157;28;1048;-75
2022/11/16 12:57:05;;;;;;;;;;;;;;;21.09;30.80;96955.47;4919498;29;1000;-75
2022/11/16 12:59:39;;;;;;;;;;;;;;;21.10;30.60;96957.03;4919864;29;1009;-75
2022/11/16 13:02:14;;;;;;;;;;;;;;;20.84;30.97;96950.03;4920009;29;1076;-75
2022/11/16 13:04:41;;;;;;;;;;;;;;;20.95;30.82;96953.22;4919511;29;1989;-75
2022/11/16 13:07:33;;;;;;;;;;;;;;;20.74;31.09;96946.38;4919394;29;958;-74
2022/11/16 13:10:01;;;;;;;;;;;;;;;20.85;30.87;96945.94;4923684;29;1119;-74
2022/11/16 13:12:27;;;;;;;;;;;;;;;20.89;30.92;96940.94;4938485;29;1051;-74
2022/11/16 13:14:52;;;;;;;;;;;;;;;21.27;30.47;96938.53;4937770;29;895;-75
2022/11/16 13:17:18;;;;;;;;;;;;;;;21.18;30.58;96932.06;4938560;29;1040;-75
2022/11/16 13:19:44;;;;;;;;;;;;;;;20.93;31.14;96930.25;4935087;29;1221;-75
2022/11/16 13:22:13;;;;;;;;;;;;;;;20.65;31.30;96932.97;4919175;29;1019;-74
2022/11/16 13:24:53;;;;;;;;;;;;;;;20.79;31.27;96937.28;4928752;29;1915;-75
2022/11/16 13:27:18;;;;;;;;;;;;;;;20.85;31.63;96932.59;4957535;29;959;-74
2022/11/16 13:29:49;;;;;;;;;;;;;;;21.12;30.68;96937.53;4957605;29;1005;-75
2022/11/16 13:32:24;;;;;;;;;;;;;;;21.28;30.63;96934.44;4957130;29;935;-74
2022/11/16 13:34:49;;;;;;;;;;;;;;;20.72;31.60;96938.34;5022150;28;964;-75
2022/11/16 13:37:33;;;;;;;;;;;;;;;20.80;31.27;96934.00;5052663;28;966;-75
2022/11/16 13:39:58;;;;;;;;;;;;;;;20.78;31.05;96935.72;5037554;28;961;-75
2022/11/16 13:42:24;;;;;;;;;;;;;;;20.75;31.43;96933.81;5019805;28;978;-74
2022/11/16 13:44:49;;;;;;;;;;;;;;;21.04;30.99;96942.72;5052682;28;1910;-74
2022/11/16 13:47:29;;;;;;;;;;;;;;;21.15;30.91;96936.63;5037505;28;944;-75
2022/11/16 13:49:58;;;;;;;;;;;;;;;20.75;31.44;96933.81;5052689;28;1069;-75
2022/11/16 13:52:39;;;;;;;;;;;;;;;20.87;31.10;96938.56;5035875;28;903;-75